Terminal Aerodrome Forecast
Issued by NWS

Home | Current Version | Previous Version | Text Only | Print | Product List | Glossary On
Versions: 1 2 3 4 5 6 7 8 9 10 11 12 13 14 15 16 17
000
FTUS43 KBIS 060500
TAFDIK
TAF
KDIK 060532Z 0606/0706 25009KT P6SM BKN070 BKN090
     FM061800 28020G32KT P6SM BKN070
     FM062300 29015KT P6SM SCT070 BKN100
     FM070500 30015KT P6SM SCT035 BKN050=

USA.gov is the U.S. government's official web portal to all federal, state and local government web resources and services.